^^
B2 Weather Station Historical Data
Daily Summary for November 7, 2018 Units:  English    Metric   Both
Daily Weekly Monthly Yearly Custom
  High: Low: Average:
Temperature: 38.8 °F 31.7 °F 35.4 °F
Dew Point: 31.8 °F 27.7 °F 29.8 °F
Humidity: 88% 72% 80%
Wind Speed: 19.6mph 3.5mph 9.5mph
Wind Gust: 12.8mph - -
Wind- - WNW
Pressure: 30.33 in 30.04 in -
Precipitation: 0.00 in    
Historical Graphs
 
 
Tabular Data for November 7, 2018
Time Temperature Dew Point Pressure Wind Wind Speed Wind Gust Humidity Rainfall Rate (Hourly) solar
00:04 37.0 °F 31.4 °F 30.04 in North 6.9 mph 5.7 mph 80% 0.00 in 0.00 W/m2
00:09 36.9 °F 31.6 °F 30.04 in SW 8.1 mph 4.3 mph 81% 0.00 in 0.00 W/m2
00:14 36.6 °F 31.6 °F 30.04 in WSW 6.0 mph 3.2 mph 82% 0.00 in 0.00 W/m2
00:19 36.4 °F 31.4 °F 30.04 in WSW 6.9 mph 4.1 mph 82% 0.00 in 0.00 W/m2
00:24 36.2 °F 31.5 °F 30.04 in SW 8.1 mph 4.5 mph 83% 0.00 in 0.00 W/m2
00:29 36.0 °F 31.6 °F 30.04 in SW 8.1 mph 5.4 mph 84% 0.00 in 0.00 W/m2
00:34 35.9 °F 31.5 °F 30.04 in WSW 8.1 mph 5.4 mph 84% 0.00 in 0.00 W/m2
00:39 35.8 °F 31.7 °F 30.04 in WSW 8.1 mph 4.7 mph 85% 0.00 in 0.00 W/m2
00:44 35.9 °F 31.8 °F 30.04 in SW 6.9 mph 3.2 mph 85% 0.00 in 0.00 W/m2
00:49 35.8 °F 31.7 °F 30.05 in SW 10.4 mph 6.8 mph 85% 0.00 in 0.00 W/m2
00:54 35.8 °F 31.7 °F 30.05 in SW 9.2 mph 5.9 mph 85% 0.00 in 0.00 W/m2
00:59 35.7 °F 31.6 °F 30.05 in South 8.1 mph 6.2 mph 85% 0.00 in 0.00 W/m2
01:04 35.6 °F 31.5 °F 30.05 in South 9.2 mph 6.1 mph 85% 0.00 in 0.00 W/m2
01:09 35.5 °F 31.4 °F 30.05 in WSW 10.4 mph 4.7 mph 85% 0.00 in 0.00 W/m2
01:14 35.4 °F 31.3 °F 30.05 in WSW 8.1 mph 5.9 mph 85% 0.00 in 0.00 W/m2
01:19 35.3 °F 31.2 °F 30.05 in West 10.4 mph 5.8 mph 85% 0.00 in 0.00 W/m2
01:24 35.3 °F 30.9 °F 30.05 in North 11.5 mph 8.2 mph 84% 0.00 in 0.00 W/m2
01:29 35.4 °F 30.8 °F 30.06 in West 11.5 mph 6.4 mph 83% 0.00 in 0.00 W/m2
01:34 35.3 °F 30.7 °F 30.05 in WSW 19.6 mph 12.8 mph 83% 0.00 in 0.00 W/m2
01:49 35.2 °F 30.0 °F 30.06 in North 10.4 mph 7.5 mph 81% 0.00 in 0.00 W/m2
01:54 35.0 °F 30.1 °F 30.06 in North 11.5 mph 7.2 mph 82% 0.00 in 0.00 W/m2
01:59 34.8 °F 29.9 °F 30.06 in North 13.8 mph 9.4 mph 82% 0.00 in 0.00 W/m2
02:04 34.8 °F 29.9 °F 30.06 in West 10.4 mph 6.9 mph 82% 0.00 in 0.00 W/m2
02:09 34.9 °F 30.3 °F 30.06 in North 11.5 mph 6.2 mph 83% 0.00 in 0.00 W/m2
02:14 34.9 °F 30.0 °F 30.07 in SW 11.5 mph 6.6 mph 82% 0.00 in 0.00 W/m2
02:19 34.9 °F 30.0 °F 30.07 in North 13.8 mph 6.8 mph 82% 0.00 in 0.00 W/m2
02:24 34.9 °F 30.0 °F 30.07 in SW 11.5 mph 6.9 mph 82% 0.00 in 0.00 W/m2
02:29 34.9 °F 30.0 °F 30.07 in SW 10.4 mph 5.9 mph 82% 0.00 in 0.00 W/m2
02:34 34.7 °F 29.8 °F 30.07 in WSW 5.8 mph 5.5 mph 82% 0.00 in 0.00 W/m2
02:39 34.6 °F 30.0 °F 30.06 in WSW 8.0 mph 6.6 mph 83% 0.00 in 0.00 W/m2
02:44 34.4 °F 29.8 °F 30.07 in SW 10.4 mph 4.3 mph 83% 0.00 in 0.00 W/m2
02:49 34.3 °F 29.7 °F 30.06 in WSW 8.1 mph 5.4 mph 83% 0.00 in 0.00 W/m2
02:54 34.2 °F 29.6 °F 30.06 in WSW 11.5 mph 6.5 mph 83% 0.00 in 0.00 W/m2
02:59 34.2 °F 29.9 °F 30.06 in SW 8.1 mph 7.5 mph 84% 0.00 in 0.00 W/m2
03:04 34.2 °F 29.9 °F 30.06 in North 10.4 mph 4.9 mph 84% 0.00 in 0.00 W/m2
03:09 34.1 °F 29.8 °F 30.06 in WSW 9.2 mph 6.7 mph 84% 0.00 in 0.00 W/m2
03:14 33.9 °F 29.6 °F 30.07 in SSW 6.9 mph 5.0 mph 84% 0.00 in 0.00 W/m2
03:19 33.8 °F 29.5 °F 30.07 in WSW 8.1 mph 5.8 mph 84% 0.00 in 0.00 W/m2
03:24 33.7 °F 29.7 °F 30.07 in SW 9.2 mph 7.8 mph 85% 0.00 in 0.00 W/m2
03:29 33.7 °F 29.7 °F 30.07 in SSW 8.1 mph 4.1 mph 85% 0.00 in 0.00 W/m2
03:34 33.7 °F 29.7 °F 30.07 in North 8.1 mph 5.5 mph 85% 0.00 in 0.00 W/m2
03:39 33.5 °F 29.5 °F 30.06 in WSW 11.5 mph 6.5 mph 85% 0.00 in 0.00 W/m2
03:44 33.5 °F 29.5 °F 30.06 in WSW 8.1 mph 5.7 mph 85% 0.00 in 0.00 W/m2
03:49 33.4 °F 29.4 °F 30.06 in SW 8.1 mph 5.1 mph 85% 0.00 in 0.00 W/m2
03:54 33.4 °F 29.4 °F 30.06 in North 9.2 mph 5.6 mph 85% 0.00 in 0.00 W/m2
03:59 33.3 °F 29.3 °F 30.07 in SW 6.9 mph 5.0 mph 85% 0.00 in 0.00 W/m2
04:04 33.3 °F 29.3 °F 30.07 in North 8.1 mph 5.7 mph 85% 0.00 in 0.00 W/m2
04:09 33.3 °F 29.3 °F 30.07 in WSW 6.0 mph 5.0 mph 85% 0.00 in 0.00 W/m2
04:14 33.2 °F 29.2 °F 30.07 in WSW 8.1 mph 6.1 mph 85% 0.00 in 0.00 W/m2
04:19 33.2 °F 29.2 °F 30.07 in North 6.0 mph 5.2 mph 85% 0.00 in 0.00 W/m2
04:24 33.2 °F 29.2 °F 30.07 in WSW 8.1 mph 6.2 mph 85% 0.00 in 0.00 W/m2
04:29 33.2 °F 29.5 °F 30.07 in WSW 6.0 mph 5.3 mph 86% 0.00 in 0.00 W/m2
04:34 33.3 °F 29.6 °F 30.07 in WSW 13.0 mph 6.4 mph 86% 0.00 in 0.00 W/m2
04:39 33.3 °F 29.3 °F 30.08 in SW 9.0 mph 5.1 mph 85% 0.00 in 0.00 W/m2
04:44 33.2 °F 29.2 °F 30.07 in West 6.9 mph 5.0 mph 85% 0.00 in 0.00 W/m2
04:49 33.1 °F 29.4 °F 30.08 in North 8.1 mph 5.1 mph 86% 0.00 in 0.00 W/m2
04:54 33.0 °F 29.3 °F 30.08 in WSW 6.0 mph 2.6 mph 86% 0.00 in 0.00 W/m2
04:59 32.9 °F 29.5 °F 30.08 in WSW 9.2 mph 6.3 mph 87% 0.00 in 0.00 W/m2
05:04 32.8 °F 29.4 °F 30.08 in WSW 6.9 mph 4.7 mph 87% 0.00 in 0.00 W/m2
05:09 32.7 °F 29.3 °F 30.08 in West 8.1 mph 4.2 mph 87% 0.00 in 0.00 W/m2
05:14 32.6 °F 29.2 °F 30.07 in West 13.8 mph 6.4 mph 87% 0.00 in 0.00 W/m2
05:19 32.5 °F 29.1 °F 30.07 in WSW 6.9 mph 5.4 mph 87% 0.00 in 0.00 W/m2
05:24 32.4 °F 29.0 °F 30.07 in West 9.2 mph 5.9 mph 87% 0.00 in 0.00 W/m2
05:29 32.3 °F 29.1 °F 30.07 in North 6.9 mph 5.1 mph 88% 0.00 in 0.00 W/m2
05:34 32.2 °F 29.0 °F 30.08 in North 5.8 mph 3.8 mph 88% 0.00 in 0.00 W/m2
05:39 32.1 °F 28.9 °F 30.08 in West 10.4 mph 2.9 mph 88% 0.00 in 0.00 W/m2
05:44 32.1 °F 28.9 °F 30.08 in WSW 9.2 mph 5.9 mph 88% 0.00 in 0.00 W/m2
05:49 32.1 °F 28.9 °F 30.08 in North 8.1 mph 3.9 mph 88% 0.00 in 0.00 W/m2
05:54 32.1 °F 28.9 °F 30.08 in West 8.1 mph 3.4 mph 88% 0.00 in 0.00 W/m2
05:59 32.0 °F 28.8 °F 30.08 in WSW 6.9 mph 5.0 mph 88% 0.00 in 0.00 W/m2
06:04 31.9 °F 28.8 °F 30.08 in West 5.8 mph 4.2 mph 88% 0.00 in 0.00 W/m2
06:09 31.8 °F 28.7 °F 30.09 in WSW 7.0 mph 4.4 mph 88% 0.00 in 0.00 W/m2
06:14 31.8 °F 28.7 °F 30.09 in WSW 6.0 mph 4.5 mph 88% 0.00 in 0.00 W/m2
06:19 31.8 °F 28.7 °F 30.09 in SW 9.2 mph 5.5 mph 88% 0.00 in 0.00 W/m2
06:24 31.7 °F 28.6 °F 30.09 in WNW 8.1 mph 4.5 mph 88% 0.00 in 0.00 W/m2
06:29 31.7 °F 28.6 °F 30.09 in SW 9.2 mph 4.9 mph 88% 0.00 in 0.00 W/m2
06:34 31.7 °F 28.6 °F 30.10 in West 8.1 mph 7.2 mph 88% 0.00 in 7.00 W/m2
06:39 31.7 °F 28.6 °F 30.10 in SW 10.4 mph 5.7 mph 88% 0.00 in 9.00 W/m2
06:44 31.7 °F 28.6 °F 30.11 in WSW 10.4 mph 4.8 mph 88% 0.00 in 11.00 W/m2
06:49 31.9 °F 28.8 °F 30.11 in WSW 11.5 mph 8.0 mph 88% 0.00 in 14.00 W/m2
06:54 32.0 °F 28.6 °F 30.11 in WSW 8.1 mph 6.1 mph 87% 0.00 in 21.00 W/m2
06:59 32.1 °F 28.7 °F 30.11 in North 9.0 mph 6.1 mph 87% 0.00 in 40.00 W/m2
07:04 32.2 °F 28.8 °F 30.12 in North 10.0 mph 7.6 mph 87% 0.00 in 30.00 W/m2
07:09 32.3 °F 28.9 °F 30.12 in West 11.5 mph 5.8 mph 87% 0.00 in 32.00 W/m2
07:14 32.4 °F 29.0 °F 30.13 in SW 10.4 mph 5.2 mph 87% 0.00 in 35.00 W/m2
07:19 32.5 °F 29.1 °F 30.13 in North 10.4 mph 6.6 mph 87% 0.00 in 40.00 W/m2
07:24 32.6 °F 28.9 °F 30.13 in WSW 6.9 mph 3.6 mph 86% 0.00 in 42.00 W/m2
07:29 32.7 °F 29.0 °F 30.13 in WSW 9.2 mph 5.8 mph 86% 0.00 in 54.00 W/m2
07:34 32.8 °F 29.1 °F 30.14 in SSW 10.4 mph 4.2 mph 86% 0.00 in 60.00 W/m2
07:39 32.9 °F 29.2 °F 30.14 in WSW 8.1 mph 5.7 mph 86% 0.00 in 58.00 W/m2
07:44 32.9 °F 29.2 °F 30.14 in SW 7.0 mph 5.1 mph 86% 0.00 in 69.00 W/m2
07:49 32.9 °F 29.2 °F 30.14 in West 11.5 mph 7.0 mph 86% 0.00 in 74.00 W/m2
07:54 33.0 °F 29.0 °F 30.14 in North 11.5 mph 4.7 mph 85% 0.00 in 83.00 W/m2
07:59 33.2 °F 29.2 °F 30.14 in West 6.9 mph 5.4 mph 85% 0.00 in 74.00 W/m2
08:04 33.3 °F 29.3 °F 30.14 in WSW 10.4 mph 7.9 mph 85% 0.00 in 214.00 W/m2
08:09 33.6 °F 29.6 °F 30.14 in West 10.4 mph 6.9 mph 85% 0.00 in 207.00 W/m2
08:14 34.1 °F 29.8 °F 30.15 in WSW 11.5 mph 5.4 mph 84% 0.00 in 264.00 W/m2
08:19 34.4 °F 29.8 °F 30.15 in West 9.2 mph 5.7 mph 83% 0.00 in 265.00 W/m2
08:24 34.8 °F 30.2 °F 30.15 in SW 8.1 mph 4.6 mph 83% 0.00 in 146.00 W/m2
08:29 34.8 °F 29.9 °F 30.15 in WNW 12.7 mph 8.7 mph 82% 0.00 in 134.00 W/m2
08:34 34.6 °F 29.7 °F 30.15 in WNW 11.5 mph 7.7 mph 82% 0.00 in 111.00 W/m2
08:39 34.6 °F 29.4 °F 30.15 in WNW 13.8 mph 9.1 mph 81% 0.00 in 121.00 W/m2
08:44 34.7 °F 29.5 °F 30.15 in North 11.0 mph 7.4 mph 81% 0.00 in 125.00 W/m2
08:49 34.8 °F 29.0 °F 30.15 in NW 16.0 mph 9.3 mph 79% 0.00 in 127.00 W/m2
08:54 35.0 °F 29.1 °F 30.15 in West 13.8 mph 9.8 mph 79% 0.00 in 167.00 W/m2
08:59 34.9 °F 28.4 °F 30.16 in NW 17.3 mph 8.9 mph 77% 0.00 in 130.00 W/m2
09:04 35.0 °F 28.5 °F 30.15 in North 12.7 mph 10.0 mph 77% 0.00 in 176.00 W/m2
09:09 35.1 °F 28.3 °F 30.16 in West 17.3 mph 9.5 mph 76% 0.00 in 178.00 W/m2
09:14 35.1 °F 28.0 °F 30.16 in SW 12.7 mph 9.7 mph 75% 0.00 in 258.00 W/m2
09:19 35.4 °F 28.3 °F 30.16 in North 16.1 mph 9.9 mph 75% 0.00 in 213.00 W/m2
09:24 35.7 °F 28.6 °F 30.16 in West 15.0 mph 5.9 mph 75% 0.00 in 200.00 W/m2
09:29 35.9 °F 28.7 °F 30.16 in North 10.4 mph 5.5 mph 75% 0.00 in 183.00 W/m2
09:34 36.0 °F 28.8 °F 30.16 in NW 12.7 mph 8.7 mph 75% 0.00 in 185.00 W/m2
09:39 35.9 °F 28.7 °F 30.17 in North 12.0 mph 8.7 mph 75% 0.00 in 192.00 W/m2
09:44 36.1 °F 28.9 °F 30.17 in North 12.0 mph 8.0 mph 75% 0.00 in 188.00 W/m2
09:49 36.0 °F 28.8 °F 30.17 in NW 12.7 mph 4.7 mph 75% 0.00 in 185.00 W/m2
09:54 36.0 °F 28.8 °F 30.17 in North 11.5 mph 9.2 mph 75% 0.00 in 237.00 W/m2
09:59 36.1 °F 28.9 °F 30.18 in SW 13.8 mph 8.6 mph 75% 0.00 in 197.00 W/m2
10:04 36.1 °F 28.9 °F 30.18 in SW 16.1 mph 6.9 mph 75% 0.00 in 197.00 W/m2
10:09 36.2 °F 29.0 °F 30.18 in WSW 15.0 mph 6.8 mph 75% 0.00 in 181.00 W/m2
10:14 36.3 °F 29.5 °F 30.19 in North 9.2 mph 4.1 mph 76% 0.00 in 160.00 W/m2
10:19 36.5 °F 29.7 °F 30.19 in NW 11.5 mph 5.3 mph 76% 0.00 in 156.00 W/m2
10:24 36.5 °F 29.7 °F 30.19 in North 11.5 mph 7.0 mph 76% 0.00 in 174.00 W/m2
10:29 36.5 °F 29.7 °F 30.19 in North 12.7 mph 5.6 mph 76% 0.00 in 176.00 W/m2
10:34 36.6 °F 29.4 °F 30.19 in NW 13.8 mph 8.0 mph 75% 0.00 in 171.00 W/m2
10:39 36.5 °F 29.7 °F 30.19 in North 12.7 mph 5.8 mph 76% 0.00 in 179.00 W/m2
10:44 36.5 °F 29.3 °F 30.19 in WSW 11.5 mph 7.9 mph 75% 0.00 in 163.00 W/m2
10:49 36.5 °F 29.7 °F 30.20 in North 12.7 mph 9.7 mph 76% 0.00 in 162.00 W/m2
10:54 36.6 °F 29.7 °F 30.20 in North 12.7 mph 9.1 mph 76% 0.00 in 214.00 W/m2
10:59 36.8 °F 29.6 °F 30.20 in West 15.0 mph 7.2 mph 75% 0.00 in 186.00 W/m2
11:04 36.9 °F 30.0 °F 30.20 in North 10.4 mph 6.3 mph 76% 0.00 in 165.00 W/m2
11:09 37.0 °F 30.1 °F 30.20 in West 11.5 mph 8.9 mph 76% 0.00 in 188.00 W/m2
11:14 37.1 °F 29.9 °F 30.20 in WSW 13.8 mph 7.5 mph 75% 0.00 in 223.00 W/m2
11:19 37.3 °F 30.1 °F 30.19 in West 12.7 mph 6.5 mph 75% 0.00 in 220.00 W/m2
11:24 37.4 °F 30.2 °F 30.19 in North 10.4 mph 8.3 mph 75% 0.00 in 204.00 W/m2
11:29 37.5 °F 30.3 °F 30.19 in WSW 11.5 mph 5.7 mph 75% 0.00 in 234.00 W/m2
11:34 37.6 °F 30.1 °F 30.19 in North 17.3 mph 7.5 mph 74% 0.00 in 225.00 W/m2
11:39 37.6 °F 30.4 °F 30.19 in North 15.0 mph 5.6 mph 75% 0.00 in 200.00 W/m2
11:44 37.5 °F 30.0 °F 30.19 in North 13.8 mph 11.1 mph 74% 0.00 in 186.00 W/m2
11:49 37.5 °F 30.3 °F 30.19 in WSW 11.5 mph 9.0 mph 75% 0.00 in 199.00 W/m2
11:54 37.5 °F 30.3 °F 30.19 in North 11.5 mph 5.6 mph 75% 0.00 in 165.00 W/m2
11:59 37.4 °F 29.9 °F 30.19 in WNW 16.1 mph 8.9 mph 74% 0.00 in 167.00 W/m2
12:04 37.4 °F 30.2 °F 30.19 in North 12.7 mph 8.9 mph 75% 0.00 in 181.00 W/m2
12:09 37.4 °F 30.2 °F 30.19 in North 11.5 mph 4.7 mph 75% 0.00 in 183.00 W/m2
12:14 37.4 °F 30.2 °F 30.19 in North 10.4 mph 5.7 mph 75% 0.00 in 218.00 W/m2
12:19 37.6 °F 30.1 °F 30.18 in West 11.5 mph 3.9 mph 74% 0.00 in 311.00 W/m2
12:24 38.0 °F 30.1 °F 30.18 in WNW 15.0 mph 8.1 mph 73% 0.00 in 248.00 W/m2
12:29 38.1 °F 30.2 °F 30.18 in North 10.4 mph 3.9 mph 73% 0.00 in 221.00 W/m2
12:34 38.5 °F 30.6 °F 30.18 in West 11.5 mph 4.5 mph 73% 0.00 in 255.00 W/m2
12:39 38.6 °F 30.7 °F 30.18 in North 7.0 mph 7.8 mph 73% 0.00 in 255.00 W/m2
12:44 38.6 °F 30.7 °F 30.18 in West 10.4 mph 7.2 mph 73% 0.00 in 225.00 W/m2
12:49 38.8 °F 30.9 °F 30.18 in North 9.2 mph 4.7 mph 73% 0.00 in 236.00 W/m2
12:54 38.7 °F 30.4 °F 30.18 in North 8.1 mph 6.0 mph 72% 0.00 in 229.00 W/m2
12:59 38.7 °F 30.8 °F 30.18 in North 17.3 mph 9.3 mph 73% 0.00 in 179.00 W/m2
13:04 38.5 °F 30.6 °F 30.18 in West 11.5 mph 6.8 mph 73% 0.00 in 257.00 W/m2
13:09 38.5 °F 30.3 °F 30.18 in North 10.4 mph 5.6 mph 72% 0.00 in 211.00 W/m2
13:14 38.5 °F 30.6 °F 30.18 in NW 11.5 mph 6.2 mph 73% 0.00 in 251.00 W/m2
13:19 38.7 °F 30.8 °F 30.18 in NNW 13.0 mph 7.1 mph 73% 0.00 in 251.00 W/m2
13:24 38.8 °F 31.2 °F 30.18 in North 10.4 mph 7.6 mph 74% 0.00 in 262.00 W/m2
13:29 38.5 °F 30.3 °F 30.18 in West 13.8 mph 6.1 mph 72% 0.00 in 243.00 W/m2
13:34 38.4 °F 30.5 °F 30.18 in North 9.2 mph 8.3 mph 73% 0.00 in 220.00 W/m2
13:39 38.5 °F 30.6 °F 30.18 in WSW 10.4 mph 5.3 mph 73% 0.00 in 220.00 W/m2
13:44 38.4 °F 30.8 °F 30.19 in WNW 10.4 mph 6.8 mph 74% 0.00 in 267.00 W/m2
13:49 38.5 °F 31.3 °F 30.19 in NNW 6.9 mph 3.9 mph 75% 0.00 in 193.00 W/m2
13:54 38.6 °F 31.0 °F 30.19 in North 7.0 mph 4.3 mph 74% 0.00 in 167.00 W/m2
13:59 38.2 °F 30.6 °F 30.19 in WNW 11.5 mph 6.2 mph 74% 0.00 in 163.00 W/m2
14:04 38.0 °F 30.4 °F 30.19 in North 10.4 mph 6.0 mph 74% 0.00 in 158.00 W/m2
14:09 38.0 °F 30.8 °F 30.19 in North 8.1 mph 7.0 mph 75% 0.00 in 149.00 W/m2
14:14 37.9 °F 30.4 °F 30.19 in NW 11.5 mph 6.9 mph 74% 0.00 in 160.00 W/m2
14:19 38.0 °F 30.8 °F 30.19 in North 10.4 mph 6.8 mph 75% 0.00 in 135.00 W/m2
14:24 37.9 °F 30.4 °F 30.19 in North 7.0 mph 4.9 mph 74% 0.00 in 120.00 W/m2
14:29 37.9 °F 30.4 °F 30.20 in North 10.4 mph 6.4 mph 74% 0.00 in 109.00 W/m2
14:34 37.9 °F 30.7 °F 30.20 in North 11.5 mph 5.9 mph 75% 0.00 in 100.00 W/m2
14:39 37.9 °F 30.7 °F 30.19 in North 11.5 mph 6.0 mph 75% 0.00 in 83.00 W/m2
14:44 38.1 °F 31.2 °F 30.20 in North 8.0 mph 3.7 mph 76% 0.00 in 77.00 W/m2
14:49 38.3 °F 31.4 °F 30.20 in NW 10.4 mph 6.7 mph 76% 0.00 in 79.00 W/m2
14:54 38.2 °F 31.3 °F 30.20 in North 6.0 mph 4.2 mph 76% 0.00 in 69.00 W/m2
14:59 38.3 °F 31.4 °F 30.20 in North 8.0 mph 5.9 mph 76% 0.00 in 69.00 W/m2
15:04 38.4 °F 31.5 °F 30.20 in West 8.1 mph 4.4 mph 76% 0.00 in 63.00 W/m2
15:09 38.4 °F 31.2 °F 30.20 in WNW 10.4 mph 5.2 mph 75% 0.00 in 60.00 W/m2
15:14 38.4 °F 31.2 °F 30.20 in North 11.5 mph 3.5 mph 75% 0.00 in 58.00 W/m2
15:19 38.4 °F 31.2 °F 30.20 in West 9.2 mph 8.2 mph 75% 0.00 in 47.00 W/m2
15:24 38.5 °F 31.3 °F 30.21 in North 11.5 mph 5.1 mph 75% 0.00 in 46.00 W/m2
15:29 38.4 °F 31.2 °F 30.21 in WNW 11.5 mph 6.8 mph 75% 0.00 in 42.00 W/m2
15:34 38.3 °F 31.1 °F 30.21 in NW 9.2 mph 6.7 mph 75% 0.00 in 40.00 W/m2
15:39 38.2 °F 31.3 °F 30.21 in West 8.1 mph 6.3 mph 76% 0.00 in 49.00 W/m2
15:44 38.3 °F 31.4 °F 30.21 in North 8.0 mph 4.5 mph 76% 0.00 in 46.00 W/m2
15:49 38.0 °F 30.8 °F 30.22 in WNW 11.5 mph 5.2 mph 75% 0.00 in 32.00 W/m2
15:54 37.9 °F 31.0 °F 30.22 in North 9.2 mph 6.5 mph 76% 0.00 in 21.00 W/m2
15:59 37.8 °F 30.9 °F 30.22 in WNW 5.8 mph 4.6 mph 76% 0.00 in 18.00 W/m2
16:04 37.7 °F 30.8 °F 30.22 in West 10.4 mph 4.4 mph 76% 0.00 in 14.00 W/m2
16:09 37.7 °F 31.1 °F 30.22 in NW 10.4 mph 6.8 mph 77% 0.00 in 14.00 W/m2
16:14 37.7 °F 31.1 °F 30.22 in West 6.0 mph 4.8 mph 77% 0.00 in 11.00 W/m2
16:19 37.5 °F 30.6 °F 30.22 in North 10.4 mph 5.3 mph 76% 0.00 in 11.00 W/m2
16:24 37.5 °F 30.6 °F 30.23 in North 12.7 mph 6.1 mph 76% 0.00 in 7.00 W/m2
16:29 37.4 °F 30.5 °F 30.23 in NW 10.4 mph 5.1 mph 76% 0.00 in 0.00 W/m2
16:34 37.4 °F 30.8 °F 30.23 in WNW 5.8 mph 3.5 mph 77% 0.00 in 0.00 W/m2
16:39 37.4 °F 30.8 °F 30.23 in NNW 6.9 mph 5.0 mph 77% 0.00 in 0.00 W/m2
16:44 37.3 °F 30.4 °F 30.23 in WNW 11.5 mph 6.1 mph 76% 0.00 in 0.00 W/m2
16:49 37.3 °F 30.7 °F 30.23 in WNW 9.2 mph 4.5 mph 77% 0.00 in 0.00 W/m2
16:54 37.2 °F 30.7 °F 30.23 in North 8.1 mph 5.1 mph 77% 0.00 in 0.00 W/m2
16:59 37.2 °F 30.7 °F 30.23 in North 8.1 mph 3.8 mph 77% 0.00 in 0.00 W/m2
17:04 37.2 °F 31.0 °F 30.24 in WNW 5.8 mph 4.0 mph 78% 0.00 in 0.00 W/m2
17:09 37.2 °F 30.7 °F 30.24 in North 9.2 mph 6.5 mph 77% 0.00 in 0.00 W/m2
17:14 37.2 °F 30.7 °F 30.24 in North 5.8 mph 2.7 mph 77% 0.00 in 0.00 W/m2
17:19 37.2 °F 31.0 °F 30.24 in North 6.9 mph 5.6 mph 78% 0.00 in 0.00 W/m2
17:24 37.1 °F 30.9 °F 30.25 in North 8.1 mph 4.2 mph 78% 0.00 in 0.00 W/m2
17:29 37.1 °F 30.9 °F 30.25 in North 9.2 mph 4.3 mph 78% 0.00 in 0.00 W/m2
17:34 37.1 °F 30.9 °F 30.25 in WSW 10.4 mph 9.2 mph 78% 0.00 in 0.00 W/m2
17:39 37.1 °F 30.6 °F 30.25 in WSW 8.1 mph 4.6 mph 77% 0.00 in 0.00 W/m2
17:44 37.0 °F 30.1 °F 30.25 in North 11.5 mph 5.2 mph 76% 0.00 in 0.00 W/m2
17:49 37.0 °F 30.1 °F 30.25 in North 8.1 mph 6.7 mph 76% 0.00 in 0.00 W/m2
17:54 37.0 °F 30.5 °F 30.25 in North 10.0 mph 5.1 mph 77% 0.00 in 0.00 W/m2
17:59 37.0 °F 30.1 °F 30.25 in North 12.7 mph 4.3 mph 76% 0.00 in 0.00 W/m2
18:04 37.0 °F 30.5 °F 30.26 in West 7.0 mph 4.0 mph 77% 0.00 in 0.00 W/m2
18:09 36.9 °F 30.4 °F 30.26 in North 11.5 mph 4.3 mph 77% 0.00 in 0.00 W/m2
18:14 36.9 °F 30.4 °F 30.26 in West 10.4 mph 3.6 mph 77% 0.00 in 0.00 W/m2
18:19 36.9 °F 30.4 °F 30.26 in NNW 8.1 mph 5.4 mph 77% 0.00 in 0.00 W/m2
18:24 36.9 °F 30.7 °F 30.26 in North 8.1 mph 4.8 mph 78% 0.00 in 0.00 W/m2
18:29 36.8 °F 30.6 °F 30.26 in North 11.5 mph 7.3 mph 78% 0.00 in 0.00 W/m2
18:34 36.8 °F 30.6 °F 30.26 in West 5.8 mph 2.7 mph 78% 0.00 in 0.00 W/m2
18:39 36.7 °F 30.5 °F 30.27 in North 11.5 mph 6.3 mph 78% 0.00 in 0.00 W/m2
18:44 36.7 °F 30.5 °F 30.27 in North 5.8 mph 3.5 mph 78% 0.00 in 0.00 W/m2
18:49 36.6 °F 30.7 °F 30.27 in NW 8.1 mph 3.2 mph 79% 0.00 in 0.00 W/m2
18:54 36.4 °F 30.5 °F 30.27 in NW 5.8 mph 4.1 mph 79% 0.00 in 0.00 W/m2
18:59 36.2 °F 30.3 °F 30.27 in North 6.9 mph 4.8 mph 79% 0.00 in 0.00 W/m2
19:04 36.1 °F 30.5 °F 30.28 in West 6.9 mph 3.9 mph 80% 0.00 in 0.00 W/m2
19:09 36.1 °F 29.9 °F 30.27 in North 8.1 mph 7.7 mph 78% 0.00 in 0.00 W/m2
19:14 36.1 °F 29.9 °F 30.27 in North 9.0 mph 5.1 mph 78% 0.00 in 0.00 W/m2
19:19 36.1 °F 29.9 °F 30.27 in North 8.1 mph 5.7 mph 78% 0.00 in 0.00 W/m2
19:24 36.1 °F 29.9 °F 30.27 in North 6.9 mph 3.9 mph 78% 0.00 in 0.00 W/m2
19:29 36.1 °F 29.9 °F 30.28 in North 6.9 mph 3.2 mph 78% 0.00 in 0.00 W/m2
19:34 36.1 °F 29.9 °F 30.28 in West 5.8 mph 3.6 mph 78% 0.00 in 0.00 W/m2
19:39 36.1 °F 29.9 °F 30.28 in North 9.2 mph 5.7 mph 78% 0.00 in 0.00 W/m2
19:44 36.1 °F 29.9 °F 30.28 in North 6.9 mph 4.8 mph 78% 0.00 in 0.00 W/m2
19:49 36.2 °F 30.3 °F 30.28 in North 6.0 mph 3.6 mph 79% 0.00 in 0.00 W/m2
19:54 36.1 °F 30.2 °F 30.28 in NW 8.1 mph 4.5 mph 79% 0.00 in 0.00 W/m2
19:59 35.9 °F 30.0 °F 30.28 in WNW 10.4 mph 5.3 mph 79% 0.00 in 0.00 W/m2
20:04 35.6 °F 30.0 °F 30.28 in NW 5.0 mph 6.1 mph 80% 0.00 in 0.00 W/m2
20:09 35.4 °F 29.8 °F 30.29 in NW 10.0 mph 4.9 mph 80% 0.00 in 0.00 W/m2
20:14 35.2 °F 29.6 °F 30.29 in North 10.4 mph 7.4 mph 80% 0.00 in 0.00 W/m2
20:19 35.1 °F 29.6 °F 30.29 in WNW 10.0 mph 4.7 mph 80% 0.00 in 0.00 W/m2
20:24 34.9 °F 29.0 °F 30.29 in WNW 11.0 mph 6.3 mph 79% 0.00 in 0.00 W/m2
20:29 34.8 °F 29.0 °F 30.29 in NNW 8.1 mph 4.7 mph 79% 0.00 in 0.00 W/m2
20:34 34.8 °F 29.0 °F 30.29 in North 11.0 mph 5.7 mph 79% 0.00 in 0.00 W/m2
20:39 34.8 °F 29.0 °F 30.30 in WNW 9.2 mph 4.9 mph 79% 0.00 in 0.00 W/m2
20:44 34.8 °F 29.3 °F 30.30 in West 12.7 mph 4.3 mph 80% 0.00 in 0.00 W/m2
20:49 34.7 °F 29.2 °F 30.30 in WNW 12.7 mph 8.1 mph 80% 0.00 in 0.00 W/m2
20:54 34.3 °F 29.1 °F 30.30 in NW 11.5 mph 6.0 mph 81% 0.00 in 0.00 W/m2
20:59 34.2 °F 29.0 °F 30.30 in NW 10.4 mph 6.3 mph 81% 0.00 in 0.00 W/m2
21:04 34.0 °F 28.8 °F 30.30 in WNW 9.2 mph 4.0 mph 81% 0.00 in 0.00 W/m2
21:09 34.0 °F 28.8 °F 30.30 in North 4.6 mph 3.3 mph 81% 0.00 in 0.00 W/m2
21:14 33.9 °F 29.0 °F 30.30 in North 8.1 mph 3.0 mph 82% 0.00 in 0.00 W/m2
21:19 33.8 °F 28.6 °F 30.30 in WNW 8.1 mph 4.8 mph 81% 0.00 in 0.00 W/m2
21:24 33.7 °F 28.2 °F 30.31 in WNW 6.0 mph 4.0 mph 80% 0.00 in 0.00 W/m2
21:29 33.7 °F 28.2 °F 30.31 in NW 6.9 mph 4.9 mph 80% 0.00 in 0.00 W/m2
21:34 33.6 °F 28.1 °F 30.31 in North 11.5 mph 6.6 mph 80% 0.00 in 0.00 W/m2
21:39 33.5 °F 28.3 °F 30.31 in North 10.4 mph 5.6 mph 81% 0.00 in 0.00 W/m2
21:44 33.5 °F 28.3 °F 30.31 in NW 10.4 mph 5.1 mph 81% 0.00 in 0.00 W/m2
21:49 33.5 °F 28.3 °F 30.31 in West 9.2 mph 5.2 mph 81% 0.00 in 0.00 W/m2
21:54 33.3 °F 27.8 °F 30.32 in NNW 6.9 mph 4.2 mph 80% 0.00 in 0.00 W/m2
21:59 33.3 °F 27.8 °F 30.32 in NW 8.1 mph 4.4 mph 80% 0.00 in 0.00 W/m2
22:04 33.2 °F 27.7 °F 30.32 in NW 6.9 mph 3.7 mph 80% 0.00 in 0.00 W/m2
22:09 33.2 °F 27.7 °F 30.32 in NNW 4.0 mph 2.0 mph 80% 0.00 in 0.00 W/m2
22:14 33.2 °F 27.7 °F 30.32 in NW 6.0 mph 4.2 mph 80% 0.00 in 0.00 W/m2
22:19 33.2 °F 27.7 °F 30.32 in North 9.2 mph 5.8 mph 80% 0.00 in 0.00 W/m2
22:24 33.2 °F 27.7 °F 30.32 in WNW 5.8 mph 3.0 mph 80% 0.00 in 0.00 W/m2
22:29 33.2 °F 28.0 °F 30.32 in North 6.0 mph 4.2 mph 81% 0.00 in 0.00 W/m2
22:34 33.2 °F 27.7 °F 30.32 in NW 3.5 mph 1.9 mph 80% 0.00 in 0.00 W/m2
22:39 33.2 °F 28.0 °F 30.33 in NW 5.8 mph 2.7 mph 81% 0.00 in 0.00 W/m2
22:44 33.2 °F 28.0 °F 30.32 in WNW 6.9 mph 4.7 mph 81% 0.00 in 0.00 W/m2
22:49 33.2 °F 27.7 °F 30.33 in NW 5.8 mph 2.6 mph 80% 0.00 in 0.00 W/m2
22:54 33.3 °F 28.1 °F 30.33 in WNW 3.5 mph 3.0 mph 81% 0.00 in 0.00 W/m2
22:59 33.3 °F 28.1 °F 30.33 in WNW 5.8 mph 2.7 mph 81% 0.00 in 0.00 W/m2
23:04 33.3 °F 28.1 °F 30.33 in NW 3.5 mph 1.3 mph 81% 0.00 in 0.00 W/m2
23:09 33.3 °F 28.1 °F 30.33 in WNW 3.5 mph 2.8 mph 81% 0.00 in 0.00 W/m2
23:14 33.3 °F 28.1 °F 30.33 in WNW 5.0 mph 4.1 mph 81% 0.00 in 0.00 W/m2
23:19 33.3 °F 28.1 °F 30.33 in WNW 6.9 mph 3.1 mph 81% 0.00 in 0.00 W/m2
23:24 33.3 °F 28.1 °F 30.33 in West 6.9 mph 3.5 mph 81% 0.00 in 0.00 W/m2
23:29 33.3 °F 28.4 °F 30.33 in North 5.0 mph 3.6 mph 82% 0.00 in 0.00 W/m2
23:34 33.3 °F 28.4 °F 30.33 in NW 5.8 mph 2.9 mph 82% 0.00 in 0.00 W/m2
23:39 33.3 °F 28.4 °F 30.33 in North 3.5 mph 2.3 mph 82% 0.00 in 0.00 W/m2
23:44 33.3 °F 28.1 °F 30.33 in North 6.9 mph 4.4 mph 81% 0.00 in 0.00 W/m2
23:49 33.3 °F 28.1 °F 30.33 in NNW 10.4 mph 6.4 mph 81% 0.00 in 0.00 W/m2
23:54 33.4 °F 28.2 °F 30.33 in WNW 7.0 mph 4.8 mph 81% 0.00 in 0.00 W/m2
23:59 33.3 °F 28.1 °F 30.33 in NW 9.2 mph 3.8 mph 81% 0.00 in 0.00 W/m2
Bourbonnais, Illinois, USA
Compliments of Weather Underground - 2 mb